sensor_id;sensor_type;location;lat;lon;timestamp;pressure;altitude;pressure_sealevel;temperature;humidity
71004;BME280;59025;42.050;-8.660;2022-12-07T00:01:48;100864.13;;;8.92;100.00
71004;BME280;59025;42.050;-8.660;2022-12-07T00:04:17;100860.66;;;8.85;100.00
71004;BME280;59025;42.050;-8.660;2022-12-07T00:06:47;100864.63;;;8.88;100.00
71004;BME280;59025;42.050;-8.660;2022-12-07T00:09:17;100864.19;;;8.84;100.00
71004;BME280;59025;42.050;-8.660;2022-12-07T00:11:48;100863.47;;;8.90;100.00
71004;BME280;59025;42.050;-8.660;2022-12-07T00:14:16;100863.69;;;8.89;100.00
71004;BME280;59025;42.050;-8.660;2022-12-07T00:16:44;100864.50;;;9.10;100.00
71004;BME280;59025;42.050;-8.660;2022-12-07T00:19:14;100841.53;;;9.23;100.00
71004;BME280;59025;42.050;-8.660;2022-12-07T00:21:42;100853.59;;;9.23;100.00
71004;BME280;59025;42.050;-8.660;2022-12-07T00:24:10;100857.78;;;9.09;100.00
71004;BME280;59025;42.050;-8.660;2022-12-07T00:26:39;100852.28;;;9.12;100.00
71004;BME280;59025;42.050;-8.660;2022-12-07T00:29:11;100854.78;;;9.27;100.00
71004;BME280;59025;42.050;-8.660;2022-12-07T00:31:40;100845.25;;;9.21;100.00
71004;BME280;59025;42.050;-8.660;2022-12-07T00:34:14;100829.59;;;9.16;100.00
71004;BME280;59025;42.050;-8.660;2022-12-07T00:36:42;100828.50;;;9.46;100.00
71004;BME280;59025;42.050;-8.660;2022-12-07T00:39:09;100822.75;;;9.44;100.00
71004;BME280;59025;42.050;-8.660;2022-12-07T00:41:37;100826.03;;;9.59;100.00
71004;BME280;59025;42.050;-8.660;2022-12-07T00:44:05;100816.31;;;9.54;100.00
71004;BME280;59025;42.050;-8.660;2022-12-07T00:46:32;100826.03;;;9.59;100.00
71004;BME280;59025;42.050;-8.660;2022-12-07T00:49:00;100816.13;;;9.56;100.00
71004;BME280;59025;42.050;-8.660;2022-12-07T00:51:29;100822.88;;;9.57;100.00
71004;BME280;59025;42.050;-8.660;2022-12-07T00:53:56;100819.97;;;9.66;100.00
71004;BME280;59025;42.050;-8.660;2022-12-07T00:56:26;100812.63;;;9.63;100.00
71004;BME280;59025;42.050;-8.660;2022-12-07T00:58:55;100813.84;;;9.67;100.00
71004;BME280;59025;42.050;-8.660;2022-12-07T01:01:23;100809.88;;;9.65;100.00
71004;BME280;59025;42.050;-8.660;2022-12-07T01:03:51;100812.50;;;9.71;100.00
71004;BME280;59025;42.050;-8.660;2022-12-07T01:06:23;100799.00;;;9.63;100.00
71004;BME280;59025;42.050;-8.660;2022-12-07T01:08:53;100795.16;;;9.52;100.00
71004;BME280;59025;42.050;-8.660;2022-12-07T01:11:22;100786.56;;;9.39;100.00
71004;BME280;59025;42.050;-8.660;2022-12-07T01:13:51;100778.44;;;9.35;100.00
71004;BME280;59025;42.050;-8.660;2022-12-07T01:16:20;100783.88;;;9.47;100.00
71004;BME280;59025;42.050;-8.660;2022-12-07T01:18:50;100792.91;;;9.43;100.00
71004;BME280;59025;42.050;-8.660;2022-12-07T01:21:19;100786.94;;;9.36;100.00
71004;BME280;59025;42.050;-8.660;2022-12-07T01:23:47;100789.16;;;9.18;100.00
71004;BME280;59025;42.050;-8.660;2022-12-07T01:26:18;100805.28;;;9.12;100.00
71004;BME280;59025;42.050;-8.660;2022-12-07T01:28:46;100807.47;;;8.94;100.00
71004;BME280;59025;42.050;-8.660;2022-12-07T01:31:15;100801.78;;;8.77;100.00
71004;BME280;59025;42.050;-8.660;2022-12-07T01:33:45;100808.28;;;8.59;100.00
71004;BME280;59025;42.050;-8.660;2022-12-07T01:36:15;100804.38;;;8.63;100.00
71004;BME280;59025;42.050;-8.660;2022-12-07T01:38:44;100800.41;;;8.60;100.00
71004;BME280;59025;42.050;-8.660;2022-12-07T01:41:12;100793.66;;;8.74;100.00
71004;BME280;59025;42.050;-8.660;2022-12-07T01:46:38;100793.13;;;8.64;100.00
71004;BME280;59025;42.050;-8.660;2022-12-07T01:49:07;100779.41;;;8.36;100.00
71004;BME280;59025;42.050;-8.660;2022-12-07T01:51:37;100783.72;;;8.35;100.00
71004;BME280;59025;42.050;-8.660;2022-12-07T01:54:06;100780.09;;;8.44;100.00
71004;BME280;59025;42.050;-8.660;2022-12-07T01:56:34;100781.38;;;8.55;100.00
71004;BME280;59025;42.050;-8.660;2022-12-07T01:59:03;100761.81;;;8.47;100.00
71004;BME280;59025;42.050;-8.660;2022-12-07T02:01:31;100783.34;;;8.53;100.00
71004;BME280;59025;42.050;-8.660;2022-12-07T02:04:00;100786.72;;;8.53;100.00
71004;BME280;59025;42.050;-8.660;2022-12-07T02:06:28;100780.69;;;8.61;100.00
71004;BME280;59025;42.050;-8.660;2022-12-07T02:08:56;100780.88;;;8.80;100.00
71004;BME280;59025;42.050;-8.660;2022-12-07T02:11:23;100775.81;;;8.87;100.00
71004;BME280;59025;42.050;-8.660;2022-12-07T02:13:51;100776.56;;;8.81;100.00
71004;BME280;59025;42.050;-8.660;2022-12-07T02:16:28;100771.34;;;8.74;100.00
71004;BME280;59025;42.050;-8.660;2022-12-07T02:19:35;100781.63;;;8.39;100.00
71004;BME280;59025;42.050;-8.660;2022-12-07T02:22:20;100787.19;;;8.42;100.00
71004;BME280;59025;42.050;-8.660;2022-12-07T02:24:58;100790.63;;;8.35;100.00
71004;BME280;59025;42.050;-8.660;2022-12-07T02:27:40;100783.72;;;8.35;100.00
71004;BME280;59025;42.050;-8.660;2022-12-07T02:30:13;100778.34;;;8.45;100.00
71004;BME280;59025;42.050;-8.660;2022-12-07T02:32:44;100775.69;;;8.38;100.00
71004;BME280;59025;42.050;-8.660;2022-12-07T02:35:19;100768.81;;;8.24;100.00
71004;BME280;59025;42.050;-8.660;2022-12-07T02:37:57;100779.22;;;8.37;100.00
71004;BME280;59025;42.050;-8.660;2022-12-07T02:40:29;100787.63;;;8.46;100.00
71004;BME280;59025;42.050;-8.660;2022-12-07T02:43:02;100795.75;;;8.35;100.00
71004;BME280;59025;42.050;-8.660;2022-12-07T02:45:35;100785.22;;;8.15;100.00
71004;BME280;59025;42.050;-8.660;2022-12-07T02:48:05;100793.72;;;8.16;100.00
71004;BME280;59025;42.050;-8.660;2022-12-07T02:50:34;100799.13;;;8.21;100.00
71004;BME280;59025;42.050;-8.660;2022-12-07T02:53:01;100780.28;;;8.28;100.00
71004;BME280;59025;42.050;-8.660;2022-12-07T02:55:34;100781.16;;;8.35;100.00
71004;BME280;59025;42.050;-8.660;2022-12-07T02:58:30;100775.41;;;8.48;100.00
71004;BME280;59025;42.050;-8.660;2022-12-07T03:01:14;100769.28;;;8.49;100.00
71004;BME280;59025;42.050;-8.660;2022-12-07T03:03:51;100766.25;;;8.39;100.00
71004;BME280;59025;42.050;-8.660;2022-12-07T03:06:29;100763.22;;;8.35;100.00
71004;BME280;59025;42.050;-8.660;2022-12-07T03:09:14;100775.50;;;8.40;100.00
71004;BME280;59025;42.050;-8.660;2022-12-07T03:11:49;100787.50;;;8.54;100.00
71004;BME280;59025;42.050;-8.660;2022-12-07T03:14:21;100772.31;;;8.52;100.00
71004;BME280;59025;42.050;-8.660;2022-12-07T03:16:58;100764.78;;;8.51;100.00
71004;BME280;59025;42.050;-8.660;2022-12-07T03:19:31;100755.94;;;8.53;100.00
71004;BME280;59025;42.050;-8.660;2022-12-07T03:22:04;100764.16;;;8.49;100.00
71004;BME280;59025;42.050;-8.660;2022-12-07T03:24:36;100753.22;;;8.40;100.00
71004;BME280;59025;42.050;-8.660;2022-12-07T03:27:07;100757.72;;;8.53;100.00
71004;BME280;59025;42.050;-8.660;2022-12-07T03:29:38;100746.47;;;8.54;100.00
71004;BME280;59025;42.050;-8.660;2022-12-07T03:32:14;100761.81;;;8.68;100.00
71004;BME280;59025;42.050;-8.660;2022-12-07T03:34:46;100758.59;;;8.81;100.00
71004;BME280;59025;42.050;-8.660;2022-12-07T03:37:20;100753.41;;;8.95;100.00
71004;BME280;59025;42.050;-8.660;2022-12-07T03:39:56;100741.66;;;9.07;100.00
71004;BME280;59025;42.050;-8.660;2022-12-07T03:42:26;100747.53;;;9.22;100.00
71004;BME280;59025;42.050;-8.660;2022-12-07T03:44:54;100742.31;;;9.37;100.00
71004;BME280;59025;42.050;-8.660;2022-12-07T03:47:28;100741.13;;;9.39;100.00
71004;BME280;59025;42.050;-8.660;2022-12-07T03:50:00;100742.19;;;9.51;100.00
71004;BME280;59025;42.050;-8.660;2022-12-07T03:52:36;100740.84;;;9.55;100.00
71004;BME280;59025;42.050;-8.660;2022-12-07T03:55:09;100736.94;;;9.59;100.00
71004;BME280;59025;42.050;-8.660;2022-12-07T03:57:38;100734.41;;;9.66;100.00
71004;BME280;59025;42.050;-8.660;2022-12-07T04:00:09;100731.03;;;9.65;100.00
71004;BME280;59025;42.050;-8.660;2022-12-07T04:02:39;100746.47;;;9.65;100.00
71004;BME280;59025;42.050;-8.660;2022-12-07T04:05:08;100727.03;;;9.56;100.00
71004;BME280;59025;42.050;-8.660;2022-12-07T04:07:36;100726.19;;;9.49;100.00
71004;BME280;59025;42.050;-8.660;2022-12-07T04:10:04;100734.44;;;9.45;100.00
71004;BME280;59025;42.050;-8.660;2022-12-07T04:12:32;100727.28;;;9.34;100.00
71004;BME280;59025;42.050;-8.660;2022-12-07T04:14:59;100741.88;;;9.33;100.00
71004;BME280;59025;42.050;-8.660;2022-12-07T04:17:27;100714.16;;;9.22;100.00
71004;BME280;59025;42.050;-8.660;2022-12-07T04:19:56;100718.56;;;9.07;100.00
71004;BME280;59025;42.050;-8.660;2022-12-07T04:22:23;100713.63;;;9.06;100.00
71004;BME280;59025;42.050;-8.660;2022-12-07T04:24:51;100687.06;;;8.92;100.00
71004;BME280;59025;42.050;-8.660;2022-12-07T04:27:18;100667.53;;;8.70;100.00
71004;BME280;59025;42.050;-8.660;2022-12-07T04:29:46;100677.53;;;8.44;100.00
71004;BME280;59025;42.050;-8.660;2022-12-07T04:32:14;100687.25;;;8.28;100.00
71004;BME280;59025;42.050;-8.660;2022-12-07T04:34:41;100690.41;;;8.15;100.00
71004;BME280;59025;42.050;-8.660;2022-12-07T04:37:10;100698.00;;;8.09;100.00
71004;BME280;59025;42.050;-8.660;2022-12-07T04:39:39;100696.34;;;8.01;100.00
71004;BME280;59025;42.050;-8.660;2022-12-07T04:42:06;100697.97;;;7.73;100.00
71004;BME280;59025;42.050;-8.660;2022-12-07T04:44:34;100709.88;;;7.52;100.00
71004;BME280;59025;42.050;-8.660;2022-12-07T04:47:01;100711.00;;;7.35;100.00
71004;BME280;59025;42.050;-8.660;2022-12-07T04:49:29;100719.81;;;7.32;100.00
71004;BME280;59025;42.050;-8.660;2022-12-07T04:51:57;100704.31;;;7.34;100.00
71004;BME280;59025;42.050;-8.660;2022-12-07T04:54:26;100699.72;;;7.44;100.00
71004;BME280;59025;42.050;-8.660;2022-12-07T04:56:53;100699.91;;;7.57;100.00
71004;BME280;59025;42.050;-8.660;2022-12-07T04:59:21;100709.88;;;7.52;100.00
71004;BME280;59025;42.050;-8.660;2022-12-07T05:01:48;100702.88;;;7.31;100.00
71004;BME280;59025;42.050;-8.660;2022-12-07T05:04:16;100694.47;;;7.08;100.00
71004;BME280;59025;42.050;-8.660;2022-12-07T05:06:44;100706.75;;;7.27;100.00
71004;BME280;59025;42.050;-8.660;2022-12-07T05:09:11;100710.56;;;7.31;100.00
71004;BME280;59025;42.050;-8.660;2022-12-07T05:11:40;100718.41;;;7.30;100.00
71004;BME280;59025;42.050;-8.660;2022-12-07T05:14:11;100715.56;;;7.25;100.00
71004;BME280;59025;42.050;-8.660;2022-12-07T05:16:41;100708.09;;;7.23;100.00
71004;BME280;59025;42.050;-8.660;2022-12-07T05:19:09;100707.69;;;7.12;100.00
71004;BME280;59025;42.050;-8.660;2022-12-07T05:21:38;100702.06;;;6.79;100.00
71004;BME280;59025;42.050;-8.660;2022-12-07T05:24:07;100702.88;;;6.94;100.00
71004;BME280;59025;42.050;-8.660;2022-12-07T05:26:35;100698.91;;;6.92;100.00
71004;BME280;59025;42.050;-8.660;2022-12-07T05:29:04;100701.69;;;6.82;100.00
71004;BME280;59025;42.050;-8.660;2022-12-07T05:31:32;100712.50;;;6.92;100.00
71004;BME280;59025;42.050;-8.660;2022-12-07T05:33:59;100710.06;;;6.99;100.00
71004;BME280;59025;42.050;-8.660;2022-12-07T05:36:27;100702.59;;;7.12;100.00
71004;BME280;59025;42.050;-8.660;2022-12-07T05:38:56;100703.50;;;7.33;100.00
71004;BME280;59025;42.050;-8.660;2022-12-07T05:41:24;100687.91;;;7.43;100.00
71004;BME280;59025;42.050;-8.660;2022-12-07T05:44:10;100684.09;;;7.39;100.00
71004;BME280;59025;42.050;-8.660;2022-12-07T05:46:38;100687.16;;;7.20;100.00
71004;BME280;59025;42.050;-8.660;2022-12-07T05:49:05;100686.91;;;7.15;100.00
71004;BME280;59025;42.050;-8.660;2022-12-07T05:51:33;100675.84;;;7.00;100.00
71004;BME280;59025;42.050;-8.660;2022-12-07T05:54:01;100691.41;;;7.27;100.00
71004;BME280;59025;42.050;-8.660;2022-12-07T05:56:29;100690.47;;;7.43;100.00
71004;BME280;59025;42.050;-8.660;2022-12-07T05:58:56;100683.03;;;7.48;100.00
71004;BME280;59025;42.050;-8.660;2022-12-07T06:01:42;100676.78;;;7.50;100.00
71004;BME280;59025;42.050;-8.660;2022-12-07T06:04:10;100660.81;;;7.34;100.00
71004;BME280;59025;42.050;-8.660;2022-12-07T06:06:37;100670.16;;;7.27;100.00
71004;BME280;59025;42.050;-8.660;2022-12-07T06:09:05;100666.00;;;7.26;100.00
71004;BME280;59025;42.050;-8.660;2022-12-07T06:11:33;100678.00;;;7.40;100.00
71004;BME280;59025;42.050;-8.660;2022-12-07T06:14:17;100681.44;;;7.47;100.00
71004;BME280;59025;42.050;-8.660;2022-12-07T06:16:46;100681.88;;;7.50;100.00
71004;BME280;59025;42.050;-8.660;2022-12-07T06:19:14;100680.41;;;7.56;100.00
71004;BME280;59025;42.050;-8.660;2022-12-07T06:21:42;100666.34;;;7.52;100.00
71004;BME280;59025;42.050;-8.660;2022-12-07T06:24:10;100666.09;;;7.61;100.00
71004;BME280;59025;42.050;-8.660;2022-12-07T06:26:38;100672.91;;;7.54;100.00
71004;BME280;59025;42.050;-8.660;2022-12-07T06:29:06;100653.94;;;7.49;100.00
71004;BME280;59025;42.050;-8.660;2022-12-07T06:31:35;100660.25;;;7.53;100.00
71004;BME280;59025;42.050;-8.660;2022-12-07T06:34:05;100659.94;;;7.56;100.00
71004;BME280;59025;42.050;-8.660;2022-12-07T06:36:33;100648.53;;;7.58;100.00
71004;BME280;59025;42.050;-8.660;2022-12-07T06:39:01;100641.56;;;7.67;100.00
71004;BME280;59025;42.050;-8.660;2022-12-07T06:41:29;100635.03;;;7.64;100.00
71004;BME280;59025;42.050;-8.660;2022-12-07T06:43:57;100646.31;;;7.70;100.00
71004;BME280;59025;42.050;-8.660;2022-12-07T06:46:25;100635.91;;;7.57;100.00
71004;BME280;59025;42.050;-8.660;2022-12-07T06:48:53;100638.91;;;7.60;100.00
71004;BME280;59025;42.050;-8.660;2022-12-07T06:51:22;100634.50;;;7.54;100.00
71004;BME280;59025;42.050;-8.660;2022-12-07T06:53:51;100650.13;;;7.59;100.00
71004;BME280;59025;42.050;-8.660;2022-12-07T06:56:19;100655.25;;;7.59;100.00
71004;BME280;59025;42.050;-8.660;2022-12-07T06:58:48;100651.25;;;7.57;100.00
71004;BME280;59025;42.050;-8.660;2022-12-07T07:01:17;100658.25;;;7.63;100.00
71004;BME280;59025;42.050;-8.660;2022-12-07T07:03:46;100647.91;;;7.71;100.00
71004;BME280;59025;42.050;-8.660;2022-12-07T07:06:14;100648.97;;;7.76;100.00
71004;BME280;59025;42.050;-8.660;2022-12-07T07:08:43;100635.72;;;7.73;100.00
71004;BME280;59025;42.050;-8.660;2022-12-07T07:11:11;100645.16;;;7.72;100.00
71004;BME280;59025;42.050;-8.660;2022-12-07T07:13:39;100644.03;;;7.60;100.00
71004;BME280;59025;42.050;-8.660;2022-12-07T07:16:07;100643.69;;;7.49;100.00
71004;BME280;59025;42.050;-8.660;2022-12-07T07:18:36;100654.72;;;7.49;100.00
71004;BME280;59025;42.050;-8.660;2022-12-07T07:21:04;100649.75;;;7.48;100.00
71004;BME280;59025;42.050;-8.660;2022-12-07T07:23:32;100642.78;;;7.42;100.00
71004;BME280;59025;42.050;-8.660;2022-12-07T07:26:01;100651.16;;;7.50;100.00
71004;BME280;59025;42.050;-8.660;2022-12-07T07:28:29;100638.38;;;7.50;100.00
71004;BME280;59025;42.050;-8.660;2022-12-07T07:30:56;100642.78;;;7.56;100.00
71004;BME280;59025;42.050;-8.660;2022-12-07T07:33:24;100650.94;;;7.60;100.00
71004;BME280;59025;42.050;-8.660;2022-12-07T07:35:51;100649.31;;;7.59;100.00
71004;BME280;59025;42.050;-8.660;2022-12-07T07:38:19;100648.53;;;7.58;100.00
71004;BME280;59025;42.050;-8.660;2022-12-07T07:40:48;100647.41;;;7.61;100.00
71004;BME280;59025;42.050;-8.660;2022-12-07T07:43:19;100639.88;;;7.59;100.00
71004;BME280;59025;42.050;-8.660;2022-12-07T07:45:48;100636.28;;;7.54;100.00
71004;BME280;59025;42.050;-8.660;2022-12-07T07:48:16;100650.94;;;7.60;100.00
71004;BME280;59025;42.050;-8.660;2022-12-07T07:50:45;100633.25;;;7.65;100.00
71004;BME280;59025;42.050;-8.660;2022-12-07T07:53:14;100624.59;;;7.66;100.00
71004;BME280;59025;42.050;-8.660;2022-12-07T07:55:50;100639.78;;;7.67;100.00
71004;BME280;59025;42.050;-8.660;2022-12-07T07:58:22;100645.16;;;7.58;100.00
71004;BME280;59025;42.050;-8.660;2022-12-07T08:00:51;100638.38;;;7.36;100.00
71004;BME280;59025;42.050;-8.660;2022-12-07T08:03:33;100654.97;;;7.40;100.00
71004;BME280;59025;42.050;-8.660;2022-12-07T08:06:04;100643.41;;;7.29;100.00
71004;BME280;59025;42.050;-8.660;2022-12-07T08:08:33;100645.00;;;7.45;100.00
71004;BME280;59025;42.050;-8.660;2022-12-07T08:11:05;100646.50;;;7.68;100.00
71004;BME280;59025;42.050;-8.660;2022-12-07T08:13:37;100650.72;;;7.76;100.00
71004;BME280;59025;42.050;-8.660;2022-12-07T08:16:18;100651.94;;;7.80;100.00
71004;BME280;59025;42.050;-8.660;2022-12-07T08:18:45;100639.06;;;7.88;100.00
71004;BME280;59025;42.050;-8.660;2022-12-07T08:21:20;100639.56;;;7.98;100.00
71004;BME280;59025;42.050;-8.660;2022-12-07T08:23:48;100637.06;;;8.04;100.00
71004;BME280;59025;42.050;-8.660;2022-12-07T08:26:16;100647.41;;;8.11;100.00
71004;BME280;59025;42.050;-8.660;2022-12-07T08:28:45;100648.66;;;8.36;100.00
71004;BME280;59025;42.050;-8.660;2022-12-07T08:31:15;100649.50;;;8.43;100.00
71004;BME280;59025;42.050;-8.660;2022-12-07T08:33:45;100640.81;;;8.37;100.00
71004;BME280;59025;42.050;-8.660;2022-12-07T08:36:13;100651.34;;;8.49;100.00
71004;BME280;59025;42.050;-8.660;2022-12-07T08:38:41;100643.97;;;8.39;100.00
71004;BME280;59025;42.050;-8.660;2022-12-07T08:41:09;100654.22;;;8.39;100.00
71004;BME280;59025;42.050;-8.660;2022-12-07T08:43:37;100652.72;;;8.45;100.00
71004;BME280;59025;42.050;-8.660;2022-12-07T08:46:10;100657.75;;;8.38;100.00
71004;BME280;59025;42.050;-8.660;2022-12-07T08:48:43;100655.03;;;8.40;100.00
71004;BME280;59025;42.050;-8.660;2022-12-07T08:51:14;100652.28;;;8.41;100.00
71004;BME280;59025;42.050;-8.660;2022-12-07T08:53:42;100661.59;;;8.49;100.00
71004;BME280;59025;42.050;-8.660;2022-12-07T08:56:11;100656.78;;;8.39;100.00
71004;BME280;59025;42.050;-8.660;2022-12-07T08:58:39;100651.22;;;8.36;100.00
71004;BME280;59025;42.050;-8.660;2022-12-07T09:01:08;100657.41;;;8.41;100.00
71004;BME280;59025;42.050;-8.660;2022-12-07T09:03:36;100655.13;;;8.53;100.00
71004;BME280;59025;42.050;-8.660;2022-12-07T09:06:04;100657.22;;;8.43;100.00
71004;BME280;59025;42.050;-8.660;2022-12-07T09:08:34;100655.63;;;8.63;100.00
71004;BME280;59025;42.050;-8.660;2022-12-07T09:11:03;100648.88;;;8.83;100.00
71004;BME280;59025;42.050;-8.660;2022-12-07T09:13:31;100648.84;;;8.76;100.00
71004;BME280;59025;42.050;-8.660;2022-12-07T09:15:59;100640.25;;;8.63;100.00
71004;BME280;59025;42.050;-8.660;2022-12-07T09:18:28;100636.53;;;8.65;100.00
71004;BME280;59025;42.050;-8.660;2022-12-07T09:20:56;100656.28;;;8.92;100.00
71004;BME280;59025;42.050;-8.660;2022-12-07T09:23:24;100637.34;;;8.93;100.00
71004;BME280;59025;42.050;-8.660;2022-12-07T09:25:51;100641.16;;;9.04;100.00
71004;BME280;59025;42.050;-8.660;2022-12-07T09:28:19;100648.75;;;9.18;100.00
71004;BME280;59025;42.050;-8.660;2022-12-07T09:30:47;100639.13;;;9.20;100.00
71004;BME280;59025;42.050;-8.660;2022-12-07T09:33:15;100645.03;;;9.21;100.00
71004;BME280;59025;42.050;-8.660;2022-12-07T09:35:46;100638.94;;;9.28;100.00
71004;BME280;59025;42.050;-8.660;2022-12-07T09:38:14;100644.72;;;9.37;100.00
71004;BME280;59025;42.050;-8.660;2022-12-07T09:40:42;100631.53;;;9.40;100.00
71004;BME280;59025;42.050;-8.660;2022-12-07T09:43:13;100638.88;;;9.49;100.00
71004;BME280;59025;42.050;-8.660;2022-12-07T09:45:42;100628.63;;;10.03;100.00
71004;BME280;59025;42.050;-8.660;2022-12-07T09:48:16;100588.97;;;10.51;100.00
71004;BME280;59025;42.050;-8.660;2022-12-07T09:50:47;100569.56;;;10.68;100.00
71004;BME280;59025;42.050;-8.660;2022-12-07T09:53:20;100577.50;;;10.60;100.00
71004;BME280;59025;42.050;-8.660;2022-12-07T09:55:50;100571.69;;;10.97;100.00
71004;BME280;59025;42.050;-8.660;2022-12-07T09:58:21;100569.88;;;11.17;100.00
71004;BME280;59025;42.050;-8.660;2022-12-07T10:00:50;100562.28;;;11.35;100.00
71004;BME280;59025;42.050;-8.660;2022-12-07T10:03:20;100549.44;;;11.79;100.00
71004;BME280;59025;42.050;-8.660;2022-12-07T10:05:50;100561.81;;;11.57;100.00
71004;BME280;59025;42.050;-8.660;2022-12-07T10:08:19;100560.59;;;11.73;100.00
71004;BME280;59025;42.050;-8.660;2022-12-07T10:10:51;100556.97;;;12.11;100.00
71004;BME280;59025;42.050;-8.660;2022-12-07T10:13:21;100552.09;;;11.97;100.00
71004;BME280;59025;42.050;-8.660;2022-12-07T10:15:50;100557.78;;;12.36;100.00
71004;BME280;59025;42.050;-8.660;2022-12-07T10:18:26;100551.81;;;12.60;100.00
71004;BME280;59025;42.050;-8.660;2022-12-07T12:59:28;100290.59;;;15.54;100.00
71004;BME280;59025;42.050;-8.660;2022-12-07T13:02:14;100274.59;;;15.57;100.00
71004;BME280;59025;42.050;-8.660;2022-12-07T13:04:53;100276.84;;;15.91;100.00
71004;BME280;59025;42.050;-8.660;2022-12-07T13:08:01;100274.09;;;16.19;100.00
71004;BME280;59025;42.050;-8.660;2022-12-07T13:10:40;100254.63;;;16.22;100.00
71004;BME280;59025;42.050;-8.660;2022-12-07T13:13:31;100258.31;;;16.47;100.00
71004;BME280;59025;42.050;-8.660;2022-12-07T13:22:40;100241.81;;;16.58;100.00
71004;BME280;59025;42.050;-8.660;2022-12-07T13:25:12;100234.03;;;16.58;100.00
71004;BME280;59025;42.050;-8.660;2022-12-07T13:27:41;100223.34;;;16.55;100.00
71004;BME280;59025;42.050;-8.660;2022-12-07T13:30:16;100217.22;;;16.39;100.00
71004;BME280;59025;42.050;-8.660;2022-12-07T13:32:51;100214.50;;;16.29;100.00
71004;BME280;59025;42.050;-8.660;2022-12-07T13:35:34;100200.41;;;16.20;100.00
71004;BME280;59025;42.050;-8.660;2022-12-07T13:38:14;100213.84;;;16.17;100.00
71004;BME280;59025;42.050;-8.660;2022-12-07T13:40:43;100210.44;;;16.12;100.00
71004;BME280;59025;42.050;-8.660;2022-12-07T13:43:26;100208.13;;;16.15;100.00
71004;BME280;59025;42.050;-8.660;2022-12-07T13:45:56;100203.16;;;16.14;100.00
71004;BME280;59025;42.050;-8.660;2022-12-07T13:48:29;100200.34;;;15.94;100.00
71004;BME280;59025;42.050;-8.660;2022-12-07T13:50:58;100200.09;;;15.95;100.00
71004;BME280;59025;42.050;-8.660;2022-12-07T13:53:31;100197.81;;;15.99;100.00
71004;BME280;59025;42.050;-8.660;2022-12-07T13:55:59;100187.13;;;15.95;100.00
71004;BME280;59025;42.050;-8.660;2022-12-07T13:58:30;100185.03;;;15.92;100.00
71004;BME280;59025;42.050;-8.660;2022-12-07T14:00:59;100193.00;;;15.86;100.00
71004;BME280;59025;42.050;-8.660;2022-12-07T14:03:30;100183.81;;;15.78;100.00
71004;BME280;59025;42.050;-8.660;2022-12-07T14:06:17;100182.03;;;15.79;100.00
71004;BME280;59025;42.050;-8.660;2022-12-07T14:08:48;100183.81;;;15.78;100.00
71004;BME280;59025;42.050;-8.660;2022-12-07T14:11:18;100178.63;;;15.78;100.00
71004;BME280;59025;42.050;-8.660;2022-12-07T14:14:04;100190.09;;;15.82;100.00
71004;BME280;59025;42.050;-8.660;2022-12-07T14:16:34;100183.94;;;15.88;100.00
71004;BME280;59025;42.050;-8.660;2022-12-07T14:19:04;100166.16;;;15.75;100.00
71004;BME280;59025;42.050;-8.660;2022-12-07T14:21:33;100167.97;;;15.75;100.00
71004;BME280;59025;42.050;-8.660;2022-12-07T14:24:16;100178.81;;;15.72;100.00
71004;BME280;59025;42.050;-8.660;2022-12-07T14:26:45;100161.00;;;15.59;100.00
71004;BME280;59025;42.050;-8.660;2022-12-07T14:29:30;100164.19;;;15.44;100.00
71004;BME280;59025;42.050;-8.660;2022-12-07T14:32:22;100161.97;;;15.53;100.00
71004;BME280;59025;42.050;-8.660;2022-12-07T14:34:55;100163.81;;;15.52;100.00
71004;BME280;59025;42.050;-8.660;2022-12-07T14:37:24;100153.66;;;15.51;100.00
71004;BME280;59025;42.050;-8.660;2022-12-07T14:39:54;100141.31;;;15.58;100.00
71004;BME280;59025;42.050;-8.660;2022-12-07T14:42:26;100145.88;;;15.72;100.00
71004;BME280;59025;42.050;-8.660;2022-12-07T14:44:57;100127.28;;;15.80;100.00
71004;BME280;59025;42.050;-8.660;2022-12-07T14:47:26;100113.91;;;15.88;100.00
71004;BME280;59025;42.050;-8.660;2022-12-07T14:49:54;100109.75;;;15.87;100.00
71004;BME280;59025;42.050;-8.660;2022-12-07T14:52:25;100115.97;;;15.91;100.00
71004;BME280;59025;42.050;-8.660;2022-12-07T14:54:55;100102.19;;;15.86;100.00
71004;BME280;59025;42.050;-8.660;2022-12-07T14:57:23;100103.94;;;15.80;100.00
71004;BME280;59025;42.050;-8.660;2022-12-07T14:59:51;100109.84;;;15.76;100.00
71004;BME280;59025;42.050;-8.660;2022-12-07T15:02:18;100121.56;;;15.78;100.00
71004;BME280;59025;42.050;-8.660;2022-12-07T15:04:46;100108.59;;;15.78;100.00
71004;BME280;59025;42.050;-8.660;2022-12-07T15:07:18;100106.34;;;15.87;100.00
71004;BME280;59025;42.050;-8.660;2022-12-07T15:09:47;100103.94;;;15.80;100.00
71004;BME280;59025;42.050;-8.660;2022-12-07T15:12:16;100093.53;;;15.75;100.00
71004;BME280;59025;42.050;-8.660;2022-12-07T15:14:44;100097.63;;;15.71;100.00
71004;BME280;59025;42.050;-8.660;2022-12-07T15:17:12;100099.13;;;15.67;100.00
71004;BME280;59025;42.050;-8.660;2022-12-07T15:19:41;100108.69;;;15.62;100.00
71004;BME280;59025;42.050;-8.660;2022-12-07T15:22:08;100095.88;;;15.55;100.00
71004;BME280;59025;42.050;-8.660;2022-12-07T15:24:36;100118.88;;;15.47;100.00
71004;BME280;59025;42.050;-8.660;2022-12-07T15:27:05;100123.38;;;15.18;100.00
71004;BME280;59025;42.050;-8.660;2022-12-07T15:29:34;100134.09;;;15.05;100.00
71004;BME280;59025;42.050;-8.660;2022-12-07T15:32:01;100135.84;;;15.00;100.00
71004;BME280;59025;42.050;-8.660;2022-12-07T15:34:29;100138.16;;;15.01;100.00
71004;BME280;59025;42.050;-8.660;2022-12-07T15:36:57;100141.88;;;15.05;100.00
71004;BME280;59025;42.050;-8.660;2022-12-07T15:39:25;100145.25;;;14.89;100.00
71004;BME280;59025;42.050;-8.660;2022-12-07T15:41:53;100139.31;;;14.89;100.00
71004;BME280;59025;42.050;-8.660;2022-12-07T15:44:20;100145.50;;;14.88;100.00